createdAt,value
2018-04-09T00:01:05.169Z,7.33
2018-04-09T00:03:36.115Z,8.57
2018-04-09T00:06:06.702Z,7.70
2018-04-09T00:08:37.578Z,8.13
2018-04-09T00:11:08.727Z,8.30
2018-04-09T00:13:39.451Z,7.33
2018-04-09T00:16:10.185Z,7.77
2018-04-09T00:18:41.442Z,7.70
2018-04-09T00:21:12.282Z,7.50
2018-04-09T00:23:42.764Z,8.23
2018-04-09T00:26:13.438Z,7.93
2018-04-09T00:28:44.171Z,7.60
2018-04-09T00:31:14.956Z,7.80
2018-04-09T00:33:45.638Z,7.40
2018-04-09T00:36:16.324Z,6.93
2018-04-09T00:38:47.003Z,7.97
2018-04-09T00:41:17.599Z,8.03
2018-04-09T00:43:48.223Z,7.20
2018-04-09T00:46:18.858Z,7.50
2018-04-09T00:48:49.795Z,8.10
2018-04-09T00:51:20.568Z,7.10
2018-04-09T00:53:55.891Z,6.90
2018-04-09T00:56:26.497Z,6.57
2018-04-09T00:58:57.172Z,7.60
2018-04-09T01:01:27.803Z,7.07
2018-04-09T01:03:58.536Z,7.07
2018-04-09T01:06:29.271Z,7.30
2018-04-09T01:09:00.012Z,6.77
2018-04-09T01:11:30.942Z,7.20
2018-04-09T01:14:01.680Z,7.83
2018-04-09T01:16:32.465Z,6.03
2018-04-09T01:19:03.551Z,6.67
2018-04-09T01:21:34.132Z,7.70
2018-04-09T01:24:04.771Z,6.77
2018-04-09T01:26:35.308Z,7.53
2018-04-09T01:29:06.076Z,7.37
2018-04-09T01:31:36.809Z,6.80
2018-04-09T01:34:07.558Z,7.20
2018-04-09T01:36:38.131Z,6.83
2018-04-09T01:39:08.917Z,6.90
2018-04-09T01:41:39.642Z,6.97
2018-04-09T01:44:10.231Z,6.73
2018-04-09T01:46:40.902Z,6.93
2018-04-09T01:49:11.841Z,6.90
2018-04-09T01:51:42.575Z,6.70
2018-04-09T01:54:13.309Z,7.50
2018-04-09T01:56:44.042Z,7.50
2018-04-09T01:59:14.981Z,6.50
2018-04-09T02:01:45.571Z,7.40
2018-04-09T02:04:16.242Z,6.53
2018-04-09T02:06:46.977Z,6.90
2018-04-09T02:09:18.324Z,6.83
2018-04-09T02:11:49.057Z,6.70
2018-04-09T02:14:19.893Z,6.03
2018-04-09T02:16:51.604Z,6.40
2018-04-09T02:19:22.288Z,7.00
2018-04-09T02:21:52.914Z,7.30
2018-04-09T02:24:23.643Z,7.53
2018-04-09T02:26:54.814Z,8.43
2018-04-09T02:29:25.518Z,6.93
2018-04-09T02:31:56.254Z,7.53
2018-04-09T02:34:26.835Z,6.70
2018-04-09T02:36:57.721Z,6.87
2018-04-09T02:39:28.452Z,7.70
2018-04-09T02:41:59.301Z,7.10
2018-04-09T02:44:30.136Z,7.27
2018-04-09T02:47:00.767Z,6.83
2018-04-09T02:49:31.914Z,7.10
2018-04-09T02:52:02.644Z,6.83
2018-04-09T02:54:33.382Z,6.40
2018-04-09T02:57:04.120Z,6.63
2018-04-09T02:59:34.847Z,6.20
2018-04-09T03:02:05.449Z,7.20
2018-04-09T03:04:36.147Z,6.37
2018-04-09T03:07:06.703Z,7.00
2018-04-09T03:09:37.372Z,6.67
2018-04-09T03:12:07.962Z,6.70
2018-04-09T03:14:38.634Z,6.70
2018-04-09T03:17:09.220Z,7.07
2018-04-09T03:19:40.204Z,7.43
2018-04-09T03:22:11.139Z,6.20
2018-04-09T03:24:41.872Z,7.47
2018-04-09T03:27:12.459Z,6.53
2018-04-09T03:29:43.191Z,6.93
2018-04-09T03:32:13.877Z,5.90
2018-04-09T03:34:44.807Z,6.70
2018-04-09T03:37:15.546Z,6.30
2018-04-09T03:39:46.127Z,6.80
2018-04-09T03:42:16.656Z,5.90
2018-04-09T03:44:47.333Z,6.30
2018-04-09T03:47:18.064Z,6.50
2018-04-09T03:49:48.797Z,6.50
2018-04-09T03:52:19.531Z,6.80
2018-04-09T03:54:50.221Z,6.23
2018-04-09T03:57:20.899Z,6.90
2018-04-09T03:59:51.630Z,6.47
2018-04-09T04:02:22.567Z,7.10
2018-04-09T04:05:08.661Z,6.33
2018-04-09T04:07:39.395Z,7.27
2018-04-09T04:10:10.134Z,5.40
2018-04-09T04:12:40.875Z,6.77
2018-04-09T04:15:11.343Z,6.63
2018-04-09T04:18:54.580Z,6.03
2018-04-09T04:21:30.632Z,6.33
2018-04-09T04:24:01.312Z,8.00
2018-04-09T04:26:31.899Z,5.93
2018-04-09T04:29:02.574Z,7.43
2018-04-09T04:31:33.307Z,6.80
2018-04-09T04:34:03.787Z,6.70
2018-04-09T04:36:34.467Z,7.67
2018-04-09T04:39:05.820Z,6.90
2018-04-09T04:41:36.551Z,7.67
2018-04-09T04:44:07.495Z,7.63
2018-04-09T04:46:38.177Z,7.17
2018-04-09T04:49:09.159Z,7.60
2018-04-09T04:51:39.892Z,8.40
2018-04-09T04:54:10.630Z,8.70
2018-04-09T04:56:41.115Z,9.13
2018-04-09T04:59:11.790Z,9.53
2018-04-09T05:01:42.520Z,7.73
2018-04-09T05:04:13.049Z,9.40
2018-04-09T05:06:43.787Z,9.47
2018-04-09T05:09:14.718Z,17.93
2018-04-09T05:11:45.714Z,34.77
2018-04-09T05:14:16.181Z,44.13
2018-04-09T05:16:47.022Z,63.07
2018-04-09T05:19:17.612Z,52.70
2018-04-09T05:21:48.135Z,52.27
2018-04-09T05:24:18.815Z,51.83
2018-04-09T05:26:50.061Z,53.77
2018-04-09T05:29:20.690Z,53.87
2018-04-09T05:31:51.283Z,50.93
2018-04-09T05:34:21.966Z,52.00
2018-04-09T05:36:52.684Z,56.13
2018-04-09T05:39:23.289Z,58.03
2018-04-09T05:41:53.946Z,60.33
2018-04-09T05:44:24.768Z,56.60
2018-04-09T05:46:55.688Z,62.17
2018-04-09T05:49:26.353Z,48.53
2018-04-09T05:51:57.290Z,57.40
2018-04-09T05:54:27.986Z,50.50
2018-04-09T05:56:58.790Z,42.87
2018-04-09T05:59:29.544Z,40.37
2018-04-09T06:02:01.456Z,50.60
2018-04-09T06:04:31.984Z,39.87
2018-04-09T06:07:02.888Z,50.40
2018-04-09T06:09:34.682Z,36.23
2018-04-09T06:12:05.382Z,42.80
2018-04-09T06:14:36.121Z,32.87
2018-04-09T06:17:06.882Z,38.50
2018-04-09T06:19:37.467Z,40.97
2018-04-09T06:22:08.445Z,35.40
2018-04-09T06:24:39.079Z,38.40
2018-04-09T06:27:09.914Z,51.97
2018-04-09T06:29:40.707Z,43.57
2018-04-09T06:32:11.588Z,42.07
2018-04-09T06:34:42.320Z,42.00
2018-04-09T06:37:13.262Z,45.80
2018-04-09T06:39:43.853Z,61.23
2018-04-09T06:42:15.735Z,56.57
2018-04-09T06:44:46.351Z,51.47
2018-04-09T06:47:17.010Z,45.20
2018-04-09T06:49:48.832Z,40.70
2018-04-09T06:52:19.534Z,43.43
2018-04-09T06:54:50.338Z,46.87
2018-04-09T06:57:21.232Z,38.20
2018-04-09T06:59:51.906Z,43.03
2018-04-09T07:02:22.711Z,32.70
2018-04-09T07:04:53.272Z,44.50
2018-04-09T07:07:24.423Z,45.77
2018-04-09T07:09:55.210Z,56.20
2018-04-09T07:12:25.886Z,49.57
2018-04-09T07:14:58.764Z,55.80
2018-04-09T07:17:29.671Z,72.53
2018-04-09T07:20:01.782Z,49.27
2018-04-09T07:22:32.606Z,43.73
2018-04-09T07:25:03.337Z,36.57
2018-04-09T07:27:33.939Z,43.33
2018-04-09T07:30:04.599Z,43.13
2018-04-09T07:32:35.348Z,28.33
2018-04-09T07:35:06.068Z,32.40
2018-04-09T07:37:36.655Z,34.70
2018-04-09T07:40:07.535Z,32.43
2018-04-09T07:42:38.123Z,28.60
2018-04-09T07:45:08.899Z,33.90
2018-04-09T07:47:39.592Z,28.43
2018-04-09T07:50:10.226Z,24.60
2018-04-09T07:52:40.894Z,25.43
2018-04-09T07:55:12.037Z,29.63
2018-04-09T07:57:42.778Z,26.17
2018-04-09T08:00:13.914Z,25.57
2018-04-09T08:02:44.512Z,26.47
2018-04-09T08:05:15.382Z,17.33
2018-04-09T08:07:46.114Z,21.97
2018-04-09T08:10:16.848Z,18.00
2018-04-09T08:12:47.540Z,15.77
2018-04-09T08:15:18.373Z,19.67
2018-04-09T08:17:49.015Z,22.50
2018-04-09T08:20:19.644Z,52.13
2018-04-09T08:22:50.310Z,43.03
2018-04-09T08:25:20.898Z,37.93
2018-04-09T08:27:51.632Z,36.50
2018-04-09T08:30:22.159Z,34.77
2018-04-09T08:32:52.792Z,35.67
2018-04-09T08:35:23.875Z,31.77
2018-04-09T08:37:54.476Z,39.27
2018-04-09T08:40:25.445Z,36.27
2018-04-09T08:42:56.079Z,35.87
2018-04-09T08:45:27.219Z,34.50
2018-04-09T08:47:57.947Z,33.73
2018-04-09T08:50:28.783Z,35.73
2018-04-09T08:53:00.048Z,33.53
2018-04-09T08:55:30.677Z,32.97
2018-04-09T08:58:01.479Z,32.70
2018-04-09T09:00:32.238Z,28.93
2018-04-09T09:03:03.177Z,35.43
2018-04-09T09:05:33.906Z,36.43
2018-04-09T09:08:05.459Z,30.30
2018-04-09T09:10:36.053Z,32.20
2018-04-09T09:13:06.721Z,28.90
2018-04-09T09:15:37.249Z,24.27
2018-04-09T09:18:08.651Z,30.40
2018-04-09T09:20:38.355Z,34.17
2018-04-09T09:23:09.628Z,32.47
2018-04-09T09:25:39.466Z,28.20
2018-04-09T09:28:09.349Z,29.60
2018-04-09T09:30:42.496Z,36.37
2018-04-09T09:33:16.619Z,33.80
2018-04-09T09:35:47.021Z,35.13
2018-04-09T09:38:17.539Z,39.87
2018-04-09T09:40:47.548Z,29.37
2018-04-09T09:43:17.366Z,35.00
2018-04-09T09:45:47.288Z,34.33
2018-04-09T09:48:16.946Z,31.50
2018-04-09T09:50:46.986Z,30.50
2018-04-09T09:53:17.081Z,30.13
2018-04-09T09:55:47.037Z,24.63
2018-04-09T09:58:17.056Z,28.80
2018-04-09T10:00:48.729Z,31.70
2018-04-09T10:03:24.257Z,24.50
2018-04-09T10:05:54.786Z,30.37
2018-04-09T10:08:24.709Z,25.50
2018-04-09T10:10:56.050Z,27.63
2018-04-09T10:13:25.904Z,27.00
2018-04-09T10:15:55.629Z,26.40
2018-04-09T10:18:25.588Z,21.57
2018-04-09T10:20:55.705Z,24.77
2018-04-09T10:23:25.470Z,24.90
2018-04-09T10:25:55.284Z,27.63
2018-04-09T10:28:25.038Z,25.77
2018-04-09T10:30:54.700Z,22.87
2018-04-09T10:33:24.610Z,19.50
2018-04-09T10:35:54.372Z,21.53
2018-04-09T10:38:24.287Z,15.43
2018-04-09T10:40:54.098Z,14.87
2018-04-09T10:43:24.220Z,13.57
2018-04-09T10:45:54.136Z,12.03
2018-04-09T10:48:23.840Z,11.57
2018-04-09T10:50:54.216Z,14.43
2018-04-09T10:53:24.173Z,10.00
2018-04-09T10:55:53.936Z,10.30
2018-04-09T10:58:23.905Z,9.23
2018-04-09T11:00:55.262Z,12.53
2018-04-09T11:03:25.922Z,9.70
2018-04-09T11:05:56.927Z,11.73
2018-04-09T11:08:26.783Z,11.33
2018-04-09T11:10:56.915Z,26.93
2018-04-09T11:13:26.670Z,18.70
2018-04-09T11:15:56.681Z,12.40
2018-04-09T11:18:28.651Z,15.20
2018-04-09T11:20:58.813Z,17.37
2018-04-09T11:23:34.749Z,11.03
2018-04-09T11:26:11.810Z,13.33
2018-04-09T11:28:41.564Z,9.97
2018-04-09T11:31:11.225Z,11.37
2018-04-09T11:33:40.929Z,11.77
2018-04-09T11:36:10.643Z,15.03
2018-04-09T11:38:40.256Z,16.27
2018-04-09T11:41:10.374Z,12.17
2018-04-09T11:43:40.085Z,10.90
2018-04-09T11:46:10.101Z,7.90
2018-04-09T11:48:40.424Z,8.67
2018-04-09T11:51:11.774Z,9.53
2018-04-09T11:53:41.486Z,20.40
2018-04-09T11:56:11.206Z,6.73
2018-04-09T11:58:41.721Z,6.83
2018-04-09T12:01:11.429Z,6.40
2018-04-09T12:03:41.137Z,7.90
2018-04-09T12:06:11.204Z,7.00
2018-04-09T12:08:41.174Z,6.70
2018-04-09T12:11:11.055Z,7.67
2018-04-09T12:13:41.106Z,7.93
2018-04-09T12:16:11.631Z,5.93
2018-04-09T12:18:41.545Z,9.33
2018-04-09T12:21:11.282Z,7.40
2018-04-09T12:23:41.103Z,5.40
2018-04-09T12:26:10.881Z,5.27
2018-04-09T12:28:40.697Z,5.03
2018-04-09T12:32:13.489Z,6.03
2018-04-09T12:34:43.135Z,5.70
2018-04-09T12:37:13.206Z,5.03
2018-04-09T12:39:42.915Z,6.50
2018-04-09T12:42:12.881Z,5.50
2018-04-09T12:44:42.540Z,4.57
2018-04-09T12:47:12.350Z,5.13
2018-04-09T12:49:42.061Z,5.00
2018-04-09T12:52:11.975Z,5.63
2018-04-09T12:54:41.695Z,5.20
2018-04-09T12:57:11.395Z,4.87
2018-04-09T12:59:41.200Z,4.40
2018-04-09T13:02:11.122Z,4.13
2018-04-09T13:04:40.824Z,4.43
2018-04-09T13:07:10.533Z,5.00
2018-04-09T13:09:40.395Z,5.33
2018-04-09T13:12:10.157Z,16.70
2018-04-09T13:14:39.868Z,10.83
2018-04-09T13:17:13.058Z,8.20
2018-04-09T13:19:43.075Z,6.53
2018-04-09T13:22:13.376Z,6.30
2018-04-09T13:24:43.318Z,6.57
2018-04-09T13:27:13.229Z,6.20
2018-04-09T13:29:44.070Z,8.70
2018-04-09T13:32:14.693Z,6.17
2018-04-09T13:34:46.451Z,7.10
2018-04-09T13:37:26.980Z,8.53
2018-04-09T13:39:56.993Z,6.10
2018-04-09T13:42:26.896Z,6.97
2018-04-09T13:44:58.092Z,7.40
2018-04-09T13:47:27.800Z,9.43
2018-04-09T13:49:57.611Z,6.03
2018-04-09T13:52:29.163Z,6.90
2018-04-09T13:54:59.642Z,6.17
2018-04-09T13:57:29.402Z,6.30
2018-04-09T13:59:59.112Z,5.40
2018-04-09T14:02:28.780Z,6.30
2018-04-09T14:04:58.801Z,9.40
2018-04-09T14:07:28.857Z,5.43
2018-04-09T14:09:58.564Z,5.83
2018-04-09T14:12:28.273Z,8.70
2018-04-09T14:14:58.802Z,6.70
2018-04-09T14:17:28.512Z,6.20
2018-04-09T14:19:58.222Z,5.80
2018-04-09T14:22:28.083Z,5.70
2018-04-09T14:24:57.863Z,6.33
2018-04-09T14:27:27.555Z,5.80
2018-04-09T14:29:58.292Z,5.80
2018-04-09T14:32:28.002Z,5.97
2018-04-09T14:34:57.667Z,5.00
2018-04-09T14:37:27.624Z,5.37
2018-04-09T14:39:57.578Z,5.37
2018-04-09T14:42:27.661Z,5.60
2018-04-09T14:44:58.392Z,5.13
2018-04-09T14:47:28.306Z,5.00
2018-04-09T14:49:58.219Z,5.90
2018-04-09T14:52:28.092Z,5.40
2018-04-09T14:54:57.851Z,6.20
2018-04-09T14:57:27.561Z,6.23
2018-04-09T14:59:57.296Z,5.70
2018-04-09T15:02:27.241Z,5.70
2018-04-09T15:04:57.296Z,5.73
2018-04-09T15:07:28.030Z,5.03
2018-04-09T15:09:57.946Z,5.23
2018-04-09T15:12:27.661Z,4.77
2018-04-09T15:14:58.444Z,6.00
2018-04-09T15:17:28.038Z,5.37
2018-04-09T15:19:57.809Z,5.27
2018-04-09T15:22:27.518Z,4.77
2018-04-09T15:24:57.437Z,4.80
2018-04-09T15:27:27.345Z,4.70
2018-04-09T15:29:57.156Z,6.17
2018-04-09T15:32:27.275Z,4.80
2018-04-09T15:34:57.189Z,5.03
2018-04-09T15:37:27.105Z,4.70
2018-04-09T15:39:57.469Z,4.87
2018-04-09T15:42:27.291Z,4.97
2018-04-09T15:44:57.053Z,4.73
2018-04-09T15:47:26.762Z,4.70
2018-04-09T15:49:57.291Z,4.73
2018-04-09T15:52:27.211Z,4.90
2018-04-09T15:54:57.120Z,4.90
2018-04-09T15:57:27.034Z,5.00
2018-04-09T15:59:58.176Z,6.10
2018-04-09T16:02:28.192Z,5.00
2018-04-09T16:04:58.107Z,5.47
2018-04-09T16:07:36.794Z,6.40
2018-04-09T16:10:07.503Z,6.67
2018-04-09T16:12:37.475Z,9.00
2018-04-09T16:15:07.390Z,8.70
2018-04-09T16:17:46.111Z,6.37
2018-04-09T16:20:15.823Z,6.10
2018-04-09T16:22:45.947Z,6.43
2018-04-09T16:25:15.854Z,7.83
2018-04-09T16:27:45.589Z,9.33
2018-04-09T16:30:15.479Z,7.83
2018-04-09T16:32:45.191Z,7.73
2018-04-09T16:35:15.102Z,7.20
2018-04-09T16:37:44.756Z,7.37
2018-04-09T16:40:14.521Z,13.63
2018-04-09T16:42:44.542Z,9.87
2018-04-09T16:45:15.065Z,8.00
2018-04-09T16:47:44.990Z,11.23
2018-04-09T16:50:14.997Z,7.70
2018-04-09T16:52:44.913Z,15.00
2018-04-09T16:55:15.442Z,9.73
2018-04-09T16:57:45.537Z,10.70
2018-04-09T17:00:15.525Z,8.70
2018-04-09T17:02:45.389Z,7.23
2018-04-09T17:05:16.939Z,6.97
2018-04-09T17:07:46.854Z,9.60
2018-04-09T17:10:17.384Z,9.33
2018-04-09T17:12:47.247Z,8.17
2018-04-09T17:15:17.006Z,7.50
2018-04-09T17:19:09.870Z,9.57
2018-04-09T17:21:39.986Z,7.67
2018-04-09T17:24:10.719Z,7.53
2018-04-09T17:26:40.430Z,7.10
2018-04-09T17:29:10.138Z,7.87
2018-04-09T17:31:40.872Z,6.37
2018-04-09T17:34:10.805Z,6.60
2018-04-09T17:36:40.702Z,6.87
2018-04-09T17:39:10.615Z,13.60
2018-04-09T17:41:41.144Z,9.30
2018-04-09T17:44:11.011Z,6.57
2018-04-09T17:46:40.767Z,6.10
2018-04-09T17:49:10.685Z,7.57
2018-04-09T17:51:40.551Z,6.80
2018-04-09T17:54:10.715Z,16.37
2018-04-09T17:56:40.526Z,6.43
2018-04-09T17:59:10.236Z,7.13
2018-04-09T18:01:40.156Z,5.73
2018-04-09T18:04:10.005Z,6.33
2018-04-09T18:06:40.140Z,6.20
2018-04-09T18:09:10.304Z,6.43
2018-04-09T18:15:58.350Z,56.33
2018-04-09T18:18:29.701Z,55.03
2018-04-09T18:21:01.213Z,60.73
2018-04-09T18:23:31.171Z,56.57
2018-04-09T18:26:01.283Z,62.43
2018-04-09T18:28:31.278Z,56.40
2018-04-09T18:31:01.319Z,61.37
2018-04-09T18:33:31.436Z,51.53
2018-04-09T18:36:01.353Z,63.13
2018-04-09T18:38:31.577Z,55.70
2018-04-09T18:41:01.483Z,58.60
2018-04-09T18:43:31.448Z,60.30
2018-04-09T18:46:01.373Z,57.23
2018-04-09T18:48:31.333Z,55.77
2018-04-09T18:51:02.077Z,53.80
2018-04-09T18:53:32.797Z,57.27
2018-04-09T18:56:03.744Z,48.73
2018-04-09T18:58:33.864Z,51.30
2018-04-09T19:01:05.822Z,47.77
2018-04-09T19:03:36.555Z,52.23
2018-04-09T19:06:06.842Z,60.90
2018-04-09T19:08:36.981Z,48.80
2018-04-09T19:11:06.917Z,51.80
2018-04-09T19:13:36.831Z,59.20
2018-04-09T19:16:07.564Z,53.87
2018-04-09T19:18:38.145Z,54.50
2018-04-09T19:21:08.410Z,59.80
2018-04-09T19:23:38.482Z,51.40
2018-04-09T19:26:08.449Z,50.50
2018-04-09T19:28:38.567Z,50.33
2018-04-09T19:31:08.683Z,58.47
2018-04-09T19:33:40.239Z,58.00
2018-04-09T19:36:14.244Z,53.17
2018-04-09T19:39:51.751Z,52.73
2018-04-09T19:42:22.479Z,56.67
2018-04-09T19:44:52.554Z,54.03
2018-04-09T19:47:23.134Z,59.07
2018-04-09T19:49:53.018Z,55.87
2018-04-09T19:52:22.840Z,60.27
2018-04-09T19:54:52.870Z,62.23
2018-04-09T19:57:22.781Z,57.47
2018-04-09T19:59:52.896Z,55.07
2018-04-09T20:02:23.430Z,63.37
2018-04-09T20:04:53.430Z,61.40
2018-04-09T20:07:23.257Z,58.03
2018-04-09T20:09:53.428Z,60.80
2018-04-09T20:12:23.383Z,58.47
2018-04-09T20:14:53.615Z,57.20
2018-04-09T20:17:23.941Z,54.50
2018-04-09T20:19:55.485Z,57.77
2018-04-09T20:22:26.411Z,67.07
2018-04-09T20:24:56.357Z,61.33
2018-04-09T20:27:26.464Z,63.90
2018-04-09T20:29:56.995Z,56.10
2018-04-09T20:32:27.541Z,50.97
2018-04-09T20:34:58.256Z,47.80
2018-04-09T20:37:28.785Z,49.57
2018-04-09T20:39:58.698Z,57.30
2018-04-09T20:42:30.251Z,47.00
2018-04-09T20:45:01.597Z,51.60
2018-04-09T20:47:32.331Z,40.00
2018-04-09T20:50:02.044Z,46.60
2018-04-09T20:52:31.954Z,54.83
2018-04-09T20:55:01.676Z,55.13
2018-04-09T20:57:32.196Z,43.87
2018-04-09T21:00:02.265Z,46.10
2018-04-09T21:02:32.228Z,48.10
2018-04-09T21:05:02.961Z,43.10
2018-04-09T21:07:34.514Z,45.83
2018-04-09T21:10:04.593Z,47.03
2018-04-09T21:12:35.980Z,49.57
2018-04-09T21:15:06.520Z,55.67
2018-04-09T21:17:36.393Z,53.27
2018-04-09T21:20:06.337Z,45.83
2018-04-09T21:22:36.458Z,49.03
2018-04-09T21:25:06.744Z,53.03
2018-04-09T21:27:36.853Z,55.97
2018-04-09T21:30:06.664Z,52.43
2018-04-09T21:32:36.527Z,53.20
2018-04-09T21:35:06.544Z,49.00
2018-04-09T21:37:36.560Z,51.63
2018-04-09T21:40:06.764Z,48.93
2018-04-09T21:42:36.970Z,47.53
2018-04-09T21:45:07.105Z,62.03
2018-04-09T21:47:37.240Z,55.57
2018-04-09T21:50:07.018Z,47.00
2018-04-09T21:52:36.822Z,56.67
2018-04-09T21:55:07.390Z,55.67
2018-04-09T21:57:37.309Z,52.70
2018-04-09T22:00:07.424Z,55.00
2018-04-09T22:02:38.173Z,52.80
2018-04-09T22:05:08.282Z,48.23
2018-04-09T22:07:38.805Z,44.83
2018-04-09T22:10:10.284Z,52.13
2018-04-09T22:12:41.092Z,44.47
2018-04-09T22:15:10.951Z,49.77
2018-04-09T22:17:40.721Z,44.77
2018-04-09T22:20:10.629Z,48.60
2018-04-09T22:22:40.748Z,40.80
2018-04-09T22:25:12.103Z,43.33
2018-04-09T22:27:42.216Z,42.50
2018-04-09T22:30:13.319Z,39.87
2018-04-09T22:32:43.275Z,38.70
2018-04-09T22:35:17.629Z,37.53
2018-04-09T22:37:48.024Z,44.53
2018-04-09T22:40:21.844Z,37.77
2018-04-09T22:42:52.759Z,33.90
2018-04-09T22:45:22.674Z,35.03
2018-04-09T22:47:52.588Z,32.67
2018-04-09T22:50:22.498Z,33.23
2018-04-09T22:52:52.211Z,32.87
2018-04-09T22:55:22.126Z,39.27
2018-04-09T22:57:53.788Z,34.27
2018-04-09T23:00:23.799Z,33.40
2018-04-09T23:02:53.713Z,37.00
2018-04-09T23:05:23.627Z,35.87
2018-04-09T23:07:53.623Z,39.60
2018-04-09T23:10:23.865Z,37.53
2018-04-09T23:12:53.780Z,36.97
2018-04-09T23:15:23.447Z,37.00
2018-04-09T23:17:53.821Z,37.80
2018-04-09T23:20:23.727Z,38.07
2018-04-09T23:22:53.439Z,38.00
2018-04-09T23:25:23.351Z,36.47
2018-04-09T23:27:54.698Z,40.83
2018-04-09T23:30:24.613Z,41.10
2018-04-09T23:32:55.961Z,40.20
2018-04-09T23:35:25.921Z,46.80
2018-04-09T23:37:55.995Z,44.20
2018-04-09T23:40:25.912Z,45.47
2018-04-09T23:42:55.824Z,41.37
2018-04-09T23:45:25.536Z,39.83
2018-04-09T23:47:55.242Z,43.27
2018-04-09T23:50:24.955Z,45.43
2018-04-09T23:52:54.662Z,43.93
2018-04-09T23:55:24.508Z,44.93
2018-04-09T23:57:55.105Z,46.87
